Time;durP1;ratioP1;P1;durP2;ratioP2;P2;SDS_P1;SDS_P2;PMS_P1;PMS_P2;Temp;Humidity;BMP_temperature;BMP_pressure;BME280_temperature;BME280_humidity;BME280_pressure;Samples;Min_cycle;Max_cycle;Signal;HPM_P1;HPM_P2
2022/08/15 00:01:00;;;;;;;26.83;17.83;;;;;;;20.53;73.14;99924.69;4968442;28;20043;-93
2022/08/15 00:03:30;;;;;;;30.98;19.60;;;;;;;20.34;73.19;99894.03;4971100;28;20042;-95
2022/08/15 00:06:03;;;;;;;33.35;22.45;;;;;;;20.45;73.65;99914.16;4963198;28;20050;-95
2022/08/15 00:08:33;;;;;;;44.55;26.05;;;;;;;20.30;74.17;99913.84;4945741;28;20052;-94
2022/08/15 00:11:02;;;;;;;45.78;27.50;;;;;;;20.27;74.59;99912.44;4919298;28;20043;-92
2022/08/15 00:13:30;;;;;;;45.60;27.13;;;;;;;20.11;74.81;99881.31;4911227;28;20027;-96
2022/08/15 00:16:00;;;;;;;47.03;27.83;;;;;;;20.06;75.12;99874.91;4919834;28;20389;-94
2022/08/15 00:18:30;;;;;;;40.10;25.15;;;;;;;20.19;75.01;99885.56;4948164;28;20421;-93
2022/08/15 00:21:01;;;;;;;38.13;24.65;;;;;;;20.15;75.03;99884.38;4949049;28;20047;-95
2022/08/15 00:23:28;;;;;;;35.53;23.48;;;;;;;20.19;74.75;99886.38;4930667;28;20035;-95
2022/08/15 00:26:00;;;;;;;31.55;20.88;;;;;;;20.12;74.67;99874.78;4931781;28;20043;-94
2022/08/15 00:28:30;;;;;;;34.38;21.50;;;;;;;20.08;74.70;99861.88;4943544;28;20054;-92
2022/08/15 00:31:05;;;;;;;31.52;21.10;;;;;;;20.23;74.46;99886.72;4960904;28;20043;-94
2022/08/15 00:33:33;;;;;;;33.00;19.73;;;;;;;20.25;74.35;99884.56;4956709;28;20035;-96
2022/08/15 00:36:07;;;;;;;26.75;18.85;;;;;;;20.14;74.83;99888.19;4934813;28;20123;-94
2022/08/15 00:38:35;;;;;;;24.58;17.77;;;;;;;20.19;73.93;99874.63;4977993;28;20050;-92
2022/08/15 00:44:03;;;;;;;26.45;18.08;;;;;;;20.31;74.24;99883.59;4978364;28;20046;-93
2022/08/15 00:46:37;;;;;;;30.70;18.52;;;;;;;20.26;74.30;99877.22;4982071;28;20045;-92
2022/08/15 00:49:14;;;;;;;34.67;18.92;;;;;;;20.24;74.42;99869.28;4984907;28;20041;-95
2022/08/15 00:52:01;;;;;;;27.38;18.75;;;;;;;20.21;74.04;99856.94;4974559;28;20047;-96
2022/08/15 00:54:29;;;;;;;28.88;19.65;;;;;;;20.23;74.41;99875.81;4980571;28;20065;-91
2022/08/15 00:57:22;;;;;;;26.40;18.27;;;;;;;20.25;74.05;99879.09;4987268;28;20054;-94
2022/08/15 01:00:00;;;;;;;29.42;19.90;;;;;;;20.17;74.36;99883.06;4968755;28;20050;-93
2022/08/15 01:02:30;;;;;;;28.58;19.15;;;;;;;20.19;74.53;99885.56;4957962;28;20035;-92
2022/08/15 01:04:59;;;;;;;27.17;19.27;;;;;;;20.15;74.41;99887.09;4971195;28;20050;-92
2022/08/15 01:07:31;;;;;;;24.73;17.23;;;;;;;20.24;74.40;99899.28;4963671;28;20125;-94
2022/08/15 01:10:01;;;;;;;24.95;16.65;;;;;;;20.29;73.91;99902.13;4962337;28;20034;-95
2022/08/15 01:12:46;;;;;;;19.85;14.85;;;;;;;20.33;73.74;99897.00;4943616;28;20038;-94
2022/08/15 01:15:17;;;;;;;18.83;14.05;;;;;;;20.31;73.41;99899.97;4990541;28;20053;-95
2022/08/15 01:17:46;;;;;;;16.25;13.38;;;;;;;20.31;73.53;99897.25;4959544;28;20061;-95
2022/08/15 01:20:26;;;;;;;15.77;12.90;;;;;;;20.28;73.02;99900.47;4945639;28;20043;-94
2022/08/15 01:23:25;;;;;;;17.70;13.20;;;;;;;20.39;72.99;99907.78;4946109;28;20058;-95
2022/08/15 01:26:17;;;;;;;17.58;13.00;;;;;;;20.43;72.99;99917.13;4965128;28;20076;-95
2022/08/15 01:28:47;;;;;;;15.00;11.98;;;;;;;20.41;72.91;99904.78;4981060;28;20062;-92
2022/08/15 01:31:25;;;;;;;18.77;12.35;;;;;;;20.42;73.30;99917.41;4961580;28;20049;-93
2022/08/15 01:33:57;;;;;;;19.60;12.55;;;;;;;20.45;72.86;99912.25;4959056;28;20057;-93
2022/08/15 01:36:31;;;;;;;17.08;13.07;;;;;;;20.47;73.02;99919.41;4958737;28;20038;-93
2022/08/15 01:39:08;;;;;;;23.23;13.68;;;;;;;20.34;73.04;99899.47;4987661;28;20594;-92
2022/08/15 01:42:03;;;;;;;20.10;14.07;;;;;;;20.42;73.28;99926.41;4975705;28;20026;-92
2022/08/15 01:44:51;;;;;;;18.40;14.88;;;;;;;20.33;73.66;99925.13;4991691;28;20051;-93
2022/08/15 01:47:48;;;;;;;20.63;15.27;;;;;;;20.36;73.56;99923.81;4985619;28;20037;-92
2022/08/15 01:50:26;;;;;;;22.08;15.57;;;;;;;20.29;73.68;99904.84;4986059;28;20054;-95
2022/08/15 01:53:00;;;;;;;23.15;16.48;;;;;;;20.36;73.47;99913.72;4934207;28;20038;-91
2022/08/15 01:55:29;;;;;;;22.13;15.88;;;;;;;20.28;73.72;99905.13;4957002;28;20031;-93
2022/08/15 01:57:58;;;;;;;24.40;16.90;;;;;;;20.25;73.87;99911.84;4991615;28;20057;-91
2022/08/15 02:00:25;;;;;;;23.50;17.33;;;;;;;20.20;74.32;99914.50;4988037;28;20038;-92
2022/08/15 02:02:52;;;;;;;25.60;15.75;;;;;;;20.30;73.99;99909.25;4970136;28;20234;-91
2022/08/15 02:05:22;;;;;;;21.92;16.58;;;;;;;20.27;73.80;99912.44;4986583;28;20057;-94
2022/08/15 02:07:48;;;;;;;24.85;16.50;;;;;;;20.28;74.07;99911.38;4979833;28;20049;-93
2022/08/15 02:10:15;;;;;;;21.83;16.33;;;;;;;20.36;73.88;99927.38;4954041;28;20051;-93
2022/08/15 02:12:41;;;;;;;22.13;16.13;;;;;;;20.33;74.18;99933.31;4958337;28;20049;-92
2022/08/15 02:15:33;;;;;;;22.83;15.27;;;;;;;20.23;74.16;99924.94;4969207;28;20031;-93
2022/08/15 02:17:59;;;;;;;20.15;16.00;;;;;;;20.17;74.40;99931.34;4975119;28;20039;-93
2022/08/15 02:20:31;;;;;;;19.73;14.57;;;;;;;20.18;74.18;99917.47;4971649;28;20058;-92
2022/08/15 02:23:10;;;;;;;;;;;;;;;20.27;74.23;99936.19;5092920;27;1919397;-93
2022/08/15 02:25:39;;;;;;;16.63;13.60;;;;;;;20.26;74.13;99932.63;5144948;27;19940;-94
2022/08/15 02:28:05;;;;;;;17.88;13.85;;;;;;;20.35;74.05;99938.56;5140160;27;20039;-93
2022/08/15 02:30:34;;;;;;;15.98;12.75;;;;;;;20.33;73.88;99941.50;5114220;27;20447;-93
2022/08/15 02:33:00;;;;;;;18.33;12.82;;;;;;;20.41;73.74;99943.84;5131182;27;20071;-93
2022/08/15 02:35:27;;;;;;;17.40;13.40;;;;;;;20.36;73.55;99943.75;5130991;27;20095;-93
2022/08/15 02:37:52;;;;;;;16.10;12.68;;;;;;;20.19;73.78;99921.03;5159778;27;20022;-90
2022/08/15 02:40:38;;;;;;;15.82;13.00;;;;;;;20.34;73.68;99943.16;5138527;27;20034;-94
2022/08/15 02:43:07;;;;;;;15.25;12.55;;;;;;;20.28;73.78;99925.03;5130045;27;20405;-92
2022/08/15 02:45:38;;;;;;;17.15;12.75;;;;;;;20.30;73.60;99933.81;5138978;27;20080;-92
2022/08/15 02:48:07;;;;;;;19.15;12.68;;;;;;;20.34;73.63;99937.69;5097834;27;20050;-94
2022/08/15 02:50:36;;;;;;;16.23;13.38;;;;;;;20.41;73.33;99938.38;5162721;27;20067;-93
2022/08/15 02:53:18;;;;;;;15.07;12.95;;;;;;;20.31;73.56;99921.81;5154560;27;20130;-94
2022/08/15 02:56:00;;;;;;;18.27;12.90;;;;;;;20.26;73.58;99929.91;5141091;27;20121;-93
2022/08/15 02:58:57;;;;;;;18.02;13.43;;;;;;;20.27;74.28;99947.94;5149575;27;20039;-93
2022/08/15 03:01:37;;;;;;;16.15;13.23;;;;;;;20.23;74.35;99947.59;5150964;27;20117;-93
2022/08/15 03:04:07;;;;;;;16.52;13.32;;;;;;;20.26;74.17;99946.28;5139094;27;20043;-94
2022/08/15 03:06:36;;;;;;;18.30;13.30;;;;;;;20.27;74.22;99942.47;5121171;27;20701;-94
2022/08/15 03:09:07;;;;;;;16.35;13.65;;;;;;;20.20;74.60;99947.25;5113335;27;20051;-94
2022/08/15 03:11:38;;;;;;;20.52;14.10;;;;;;;20.15;74.81;99944.41;5134551;27;20551;-94
2022/08/15 03:14:26;;;;;;;18.85;13.95;;;;;;;20.11;74.95;99937.78;5138651;27;20538;-95
2022/08/15 03:16:59;;;;;;;18.77;14.40;;;;;;;19.94;74.94;99930.34;5129035;27;20062;-94
2022/08/15 03:19:35;;;;;;;18.48;14.38;;;;;;;19.98;74.71;99922.50;5127562;27;20047;-93
2022/08/15 03:22:17;;;;;;;21.88;16.10;;;;;;;20.17;74.48;99948.56;5147461;27;20055;-95
2022/08/15 03:25:13;;;;;;;24.35;16.77;;;;;;;20.26;74.46;99957.19;5134585;27;20058;-93
2022/08/15 03:27:42;;;;;;;24.60;18.35;;;;;;;20.23;74.62;99966.69;5133423;27;20414;-94
2022/08/15 03:30:10;;;;;;;31.00;17.90;;;;;;;20.26;74.46;99968.13;5113720;27;20047;-94
2022/08/15 03:33:09;;;;;;;23.42;17.67;;;;;;;20.39;74.26;99964.28;5124316;27;20043;-94
2022/08/15 03:35:41;;;;;;;24.70;17.05;;;;;;;20.32;74.41;99961.69;5125220;27;20031;-93
2022/08/15 03:38:14;;;;;;;25.00;17.27;;;;;;;20.39;74.11;99967.00;5115391;27;20035;-93
2022/08/15 03:40:44;;;;;;;22.67;16.38;;;;;;;20.40;73.81;99958.56;5107240;27;20094;-91
2022/08/15 03:43:15;;;;;;;23.15;16.92;;;;;;;20.40;74.03;99957.75;5131293;27;20039;-93
2022/08/15 03:45:48;;;;;;;22.65;16.92;;;;;;;20.61;73.27;99965.28;5108519;27;20036;-93
2022/08/15 03:48:13;;;;;;;25.25;18.75;;;;;;;20.55;73.42;99951.75;5097393;28;20043;-92
2022/08/15 03:50:42;;;;;;;24.92;18.92;;;;;;;20.47;73.40;99941.22;5132221;27;20070;-90
2022/08/15 03:53:10;;;;;;;28.02;19.42;;;;;;;20.56;73.45;99950.72;5140705;27;20032;-93
2022/08/15 03:55:49;;;;;;;27.05;18.98;;;;;;;20.62;73.43;99939.63;5100099;28;20072;-93
2022/08/15 03:58:17;;;;;;;24.40;18.60;;;;;;;20.44;73.38;99909.78;5125511;27;20036;-93
2022/08/15 04:00:47;;;;;;;22.30;17.90;;;;;;;20.75;72.91;99938.50;5110702;27;20051;-93
2022/08/15 04:03:41;;;;;;;23.60;18.38;;;;;;;20.78;72.97;99937.19;5121086;27;20118;-91
2022/08/15 04:06:16;;;;;;;26.33;17.67;;;;;;;20.82;72.68;99939.19;5131105;27;20047;-92
2022/08/15 04:08:46;;;;;;;22.23;16.27;;;;;;;21.00;71.91;99946.34;5130626;27;20060;-94
2022/08/15 04:11:11;;;;;;;20.08;15.52;;;;;;;21.06;71.54;99939.03;5124086;27;20032;-93
2022/08/15 04:13:39;;;;;;;21.60;16.02;;;;;;;21.04;71.83;99944.75;5109044;28;20469;-93
2022/08/15 04:16:07;;;;;;;18.48;15.75;;;;;;;21.16;71.60;99944.66;5118535;27;20051;-93
2022/08/15 04:18:39;;;;;;;20.45;15.10;;;;;;;21.14;71.56;99935.91;5115363;27;20713;-94
2022/08/15 04:21:10;;;;;;;17.05;13.75;;;;;;;21.25;70.88;99945.91;5135925;27;20038;-92
2022/08/15 04:23:43;;;;;;;17.67;14.07;;;;;;;21.26;71.13;99933.91;5102435;27;20509;-93
2022/08/15 04:26:13;;;;;;;18.20;13.82;;;;;;;21.33;70.68;99943.84;5116901;27;20051;-94
2022/08/15 04:28:40;;;;;;;18.33;14.13;;;;;;;21.24;70.40;99935.25;5127808;27;20491;-93
2022/08/15 04:31:12;;;;;;;16.92;13.98;;;;;;;21.26;70.87;99939.38;5102570;28;20446;-94
2022/08/15 04:33:38;;;;;;;18.50;14.27;;;;;;;21.35;70.46;99925.28;5123919;27;20027;-94
2022/08/15 04:36:13;;;;;;;21.17;14.32;;;;;;;21.46;70.36;99933.41;5114981;27;20559;-95
2022/08/15 04:38:53;;;;;;;18.83;14.32;;;;;;;21.36;70.28;99932.41;5110923;28;20035;-95
2022/08/15 04:41:21;;;;;;;19.42;14.23;;;;;;;21.42;69.93;99931.44;5116613;28;20043;-92
2022/08/15 04:43:50;;;;;;;19.95;14.63;;;;;;;21.22;70.53;99921.81;5119172;27;20035;-92
2022/08/15 04:46:19;;;;;;;16.75;13.75;;;;;;;21.40;70.49;99931.72;5128350;27;20042;-92
2022/08/15 04:48:52;;;;;;;17.13;13.77;;;;;;;21.47;70.01;99923.34;5130253;27;20063;-93
2022/08/15 04:51:28;;;;;;;18.45;14.07;;;;;;;21.37;70.13;99926.69;5129524;27;20032;-91
2022/08/15 04:53:59;;;;;;;17.50;14.05;;;;;;;21.62;69.80;99939.94;5128459;27;20085;-91
2022/08/15 04:56:30;;;;;;;18.02;13.65;;;;;;;21.67;69.27;99934.53;5122306;27;20127;-93
2022/08/15 04:58:58;;;;;;;18.83;13.88;;;;;;;21.61;68.83;99905.50;5122505;28;20043;-92
2022/08/15 05:01:24;;;;;;;21.33;13.75;;;;;;;21.76;68.90;99923.19;5129999;27;20027;-91
2022/08/15 05:03:51;;;;;;;18.42;13.60;;;;;;;21.75;69.06;99924.25;5130485;27;20024;-92
2022/08/15 05:06:18;;;;;;;18.25;13.90;;;;;;;21.91;68.40;99923.38;5105780;28;20042;-93
2022/08/15 05:08:50;;;;;;;18.33;13.85;;;;;;;22.04;68.05;99928.47;5131533;27;20086;-92
2022/08/15 05:11:18;;;;;;;15.25;12.95;;;;;;;22.15;67.41;99926.72;5138825;27;20044;-92
2022/08/15 05:14:01;;;;;;;20.83;13.43;;;;;;;22.24;67.33;99922.47;5117888;27;20039;-94
2022/08/15 05:16:28;;;;;;;17.35;13.18;;;;;;;22.28;67.17;99926.34;5128891;27;20039;-94
2022/08/15 05:18:56;;;;;;;17.55;13.23;;;;;;;22.30;66.74;99915.13;5139761;27;20110;-92
2022/08/15 05:21:27;;;;;;;17.10;13.13;;;;;;;22.50;66.16;99918.09;5125175;27;20566;-94
2022/08/15 05:23:55;;;;;;;18.02;12.23;;;;;;;22.81;65.28;99923.06;5105956;28;20052;-93
2022/08/15 05:26:24;;;;;;;25.00;15.50;;;;;;;22.97;65.14;99925.66;5054080;28;20098;-93
2022/08/15 05:28:51;;;;;;;17.55;11.90;;;;;;;22.99;64.21;99919.13;5054588;28;20042;-96
2022/08/15 05:31:25;;;;;;;15.82;11.15;;;;;;;23.23;62.99;99925.91;5089588;28;20080;-95
2022/08/15 05:34:11;;;;;;;15.13;10.38;;;;;;;23.23;62.68;99927.84;5086705;28;20066;-95
2022/08/15 05:36:37;;;;;;;15.25;10.13;;;;;;;23.16;62.49;99936.28;5048027;28;20051;-93
2022/08/15 05:39:11;;;;;;;14.52;9.75;;;;;;;23.28;62.39;99930.63;5062937;28;20039;-93
2022/08/15 05:41:45;;;;;;;17.33;9.83;;;;;;;23.31;62.06;99933.63;5106977;28;20063;-92
2022/08/15 05:44:40;;;;;;;14.48;9.85;;;;;;;23.42;61.67;99937.28;5085516;28;20040;-92
2022/08/15 05:47:14;;;;;;;17.27;10.35;;;;;;;23.63;61.20;99935.50;5088200;28;20036;-94
2022/08/15 05:49:51;;;;;;;14.57;9.82;;;;;;;23.72;60.92;99936.66;5076141;28;20432;-93
2022/08/15 05:52:40;;;;;;;14.38;10.77;;;;;;;23.76;60.65;99931.50;5066038;28;20058;-92
2022/08/15 05:55:45;;;;;;;14.38;10.82;;;;;;;23.96;60.16;99928.03;5088344;28;20550;-94
2022/08/15 05:58:41;;;;;;;25.85;11.77;;;;;;;24.05;60.11;99920.13;5072380;28;20082;-93
2022/08/15 06:01:36;;;;;;;22.27;11.40;;;;;;;24.08;59.94;99923.16;5081858;28;20039;-92
2022/08/15 06:04:09;;;;;;;14.63;10.63;;;;;;;24.01;59.59;99923.38;5122801;28;20038;-91
2022/08/15 06:06:38;;;;;;;16.30;10.48;;;;;;;24.18;59.29;99931.41;5106777;28;20051;-90
2022/08/15 06:09:29;;;;;;;24.35;11.23;;;;;;;24.21;58.81;99917.16;5093792;28;20015;-90
2022/08/15 06:11:55;;;;;;;19.42;10.93;;;;;;;24.23;59.38;99930.59;5076754;28;20038;-91
2022/08/15 06:14:36;;;;;;;14.65;10.15;;;;;;;24.48;58.12;99923.59;5077249;28;20029;-91
2022/08/15 06:17:15;;;;;;;15.13;10.40;;;;;;;24.48;57.89;99927.16;5103525;28;20270;-89
2022/08/15 06:19:45;;;;;;;16.30;10.43;;;;;;;24.70;57.34;99931.59;5091574;28;20032;-88
2022/08/15 06:22:30;;;;;;;16.83;10.35;;;;;;;25.34;55.44;99933.84;5076856;28;20036;-91
2022/08/15 06:25:04;;;;;;;;;;;;;;;25.84;54.46;99937.59;5114906;28;20036;-88
2022/08/15 06:28:11;;;;;;;17.42;10.73;;;;;;;26.15;53.14;99932.00;5104645;28;19918;-95
2022/08/15 06:30:50;;;;;;;13.07;9.93;;;;;;;26.29;52.87;99926.72;5131533;28;20085;-92
2022/08/15 06:33:47;;;;;;;16.75;9.65;;;;;;;26.38;52.35;99940.72;5111292;28;20047;-90
2022/08/15 06:36:35;;;;;;;13.18;9.13;;;;;;;26.43;51.72;99948.97;5117165;28;20035;-92
2022/08/15 06:39:47;;;;;;;14.02;9.25;;;;;;;25.97;53.15;99940.91;5107872;28;20050;-94
2022/08/15 06:43:07;;;;;;;14.23;9.13;;;;;;;26.31;52.57;99960.31;5093969;28;20059;-93
2022/08/15 06:45:51;;;;;;;11.60;9.35;;;;;;;26.68;51.61;99959.88;5122040;28;20047;-94
2022/08/15 06:48:38;;;;;;;17.67;9.73;;;;;;;26.95;50.94;99955.88;5121528;28;20084;-94
2022/08/15 06:51:05;;;;;;;16.98;9.75;;;;;;;27.22;49.71;99943.53;5123408;28;20113;-92
2022/08/15 06:53:46;;;;;;;13.30;9.45;;;;;;;27.48;49.89;99971.72;5101226;28;20047;-91
2022/08/15 06:56:19;;;;;;;12.13;9.40;;;;;;;27.71;49.05;99962.66;5131182;28;20388;-87
2022/08/15 06:59:09;;;;;;;13.68;9.80;;;;;;;28.19;47.74;99956.38;5110836;28;20027;-89
2022/08/15 07:01:41;;;;;;;12.55;9.65;;;;;;;28.44;47.24;99968.19;5115608;28;20035;-88
2022/08/15 07:04:13;;;;;;;16.48;9.40;;;;;;;28.49;46.77;99965.38;5117676;28;20036;-90
2022/08/15 07:06:43;;;;;;;14.60;9.50;;;;;;;28.17;47.30;99964.13;5119971;28;20035;-90
2022/08/15 07:10:01;;;;;;;14.45;9.40;;;;;;;28.19;47.14;99965.47;5121764;27;20034;-87
2022/08/15 07:12:42;;;;;;;13.82;9.48;;;;;;;28.20;47.16;99958.81;5076731;28;20036;-91
2022/08/15 07:15:26;;;;;;;13.48;9.27;;;;;;;28.60;46.78;99970.47;5074086;28;20052;-94
2022/08/15 07:18:01;;;;;;;14.60;10.15;;;;;;;28.69;46.34;99972.59;5103856;28;20134;-93
2022/08/15 07:20:28;;;;;;;13.13;9.27;;;;;;;28.57;46.24;99965.56;5109656;28;20042;-93
2022/08/15 07:22:55;;;;;;;16.60;9.02;;;;;;;28.92;45.61;99973.63;5115877;27;20055;-87
2022/08/15 07:25:28;;;;;;;13.70;9.38;;;;;;;28.89;45.47;99941.84;5126623;27;20043;-90
2022/08/15 07:28:02;;;;;;;14.52;8.30;;;;;;;29.35;44.36;99971.56;5124732;27;20168;-93
2022/08/15 07:31:04;;;;;;;14.85;9.25;;;;;;;29.30;44.44;99968.88;5117271;27;20118;-90
2022/08/15 07:33:49;;;;;;;13.70;8.63;;;;;;;29.65;43.35;99969.38;5113940;27;20055;-90
2022/08/15 07:36:28;;;;;;;14.77;9.25;;;;;;;29.64;43.32;99946.41;5116475;27;20043;-90
2022/08/15 07:38:55;;;;;;;16.00;9.75;;;;;;;30.09;42.73;99974.38;5097971;27;20035;-88
2022/08/15 07:41:33;;;;;;;14.80;9.77;;;;;;;29.90;43.47;99976.44;5104761;27;20033;-90
2022/08/15 07:44:15;;;;;;;13.00;9.15;;;;;;;30.02;42.95;99976.75;5113409;27;20089;-86
2022/08/15 07:46:48;;;;;;;11.77;9.10;;;;;;;30.43;42.24;99981.47;5119465;28;20028;-89
2022/08/15 07:49:25;;;;;;;14.25;9.40;;;;;;;29.93;42.37;99964.72;5111711;27;20038;-91
2022/08/15 07:52:03;;;;;;;20.80;8.88;;;;;;;30.09;42.61;99974.38;5125427;27;20039;-89
2022/08/15 07:54:38;;;;;;;13.55;8.45;;;;;;;30.35;41.94;99976.66;5151330;27;20085;-89
2022/08/15 07:57:06;;;;;;;14.27;8.95;;;;;;;29.86;42.89;99969.84;5139101;27;20035;-91
2022/08/15 07:59:39;;;;;;;14.98;8.80;;;;;;;29.45;44.09;99982.50;5106883;27;20036;-91
2022/08/15 08:02:31;;;;;;;15.68;10.00;;;;;;;29.19;44.73;99992.31;5125594;27;20043;-91
2022/08/15 08:05:00;;;;;;;12.55;9.10;;;;;;;29.10;44.74;99994.13;5121699;27;20550;-89
2022/08/15 08:07:58;;;;;;;17.73;9.50;;;;;;;28.41;46.27;100000.84;5123948;27;20035;-89
2022/08/15 08:11:10;;;;;;;28.30;10.55;;;;;;;28.13;47.18;99990.69;5132511;27;20354;-88
2022/08/15 08:13:46;;;;;;;25.27;10.65;;;;;;;27.86;47.35;100003.16;5122039;27;20054;-90
2022/08/15 08:16:51;;;;;;;12.73;9.02;;;;;;;27.70;47.44;99976.78;5129907;27;20035;-93
2022/08/15 08:19:28;;;;;;;13.93;9.70;;;;;;;27.69;48.41;99992.50;5128511;27;20039;-91
2022/08/15 08:22:28;;;;;;;14.48;9.15;;;;;;;28.17;46.96;99995.34;5125147;27;20027;-93
2022/08/15 08:25:04;;;;;;;61.90;12.10;;;;;;;28.42;46.31;100002.50;5130379;27;20055;-92
2022/08/15 08:28:07;;;;;;;12.25;9.60;;;;;;;28.28;46.53;100007.06;5128958;27;20054;-86
2022/08/15 08:30:58;;;;;;;15.95;9.80;;;;;;;28.26;46.58;100008.47;5121602;27;20039;-92
2022/08/15 08:34:06;;;;;;;11.20;9.48;;;;;;;28.61;46.17;100004.47;5115197;27;20039;-92
2022/08/15 08:36:41;;;;;;;15.10;10.07;;;;;;;28.62;45.95;100000.59;5119572;27;20479;-91
2022/08/15 08:39:21;;;;;;;39.35;10.38;;;;;;;29.32;44.84;99987.97;5124967;27;20165;-88
2022/08/15 08:41:56;;;;;;;46.53;12.80;;;;;;;30.55;41.96;99978.16;5101987;27;20126;-88
2022/08/15 08:44:45;;;;;;;25.63;9.80;;;;;;;31.79;38.83;99962.13;5114309;27;20035;-87
2022/08/15 08:47:40;;;;;;;34.13;10.10;;;;;;;32.93;36.59;99959.31;5125955;27;20473;-87
2022/08/15 08:50:44;;;;;;;8.82;7.32;;;;;;;33.15;35.42;99963.09;5129476;27;20099;-88
2022/08/15 08:53:42;;;;;;;9.48;7.30;;;;;;;33.63;34.57;99964.84;5126704;27;20459;-91
2022/08/15 08:56:17;;;;;;;8.98;7.65;;;;;;;33.61;34.60;99954.03;5107295;27;20047;-90
2022/08/15 08:58:49;;;;;;;15.13;7.30;;;;;;;34.57;33.19;99953.53;5098909;28;20168;-88
2022/08/15 09:01:16;;;;;;;9.52;7.63;;;;;;;34.81;32.52;99955.69;5101565;27;20031;-89
2022/08/15 09:04:18;;;;;;;11.65;7.63;;;;;;;33.43;35.10;99953.25;5121022;27;20474;-88
2022/08/15 09:06:46;;;;;;;10.93;8.18;;;;;;;33.90;34.28;99966.38;5108410;27;20027;-90
2022/08/15 09:09:33;;;;;;;11.02;7.82;;;;;;;34.46;33.42;99955.09;5111667;28;20031;-90
2022/08/15 09:15:25;;;;;;;12.98;8.55;;;;;;;34.44;32.85;99952.66;5113348;27;20057;-88
2022/08/15 09:17:53;;;;;;;16.50;9.05;;;;;;;35.28;31.23;99952.66;5111025;28;20063;-89
2022/08/15 09:20:24;;;;;;;12.15;9.43;;;;;;;34.08;32.98;99955.97;5123050;27;20035;-89
2022/08/15 09:22:50;;;;;;;12.27;9.50;;;;;;;33.56;33.99;99956.97;5105598;28;20130;-89
2022/08/15 09:25:16;;;;;;;12.70;9.95;;;;;;;34.65;32.33;99952.72;5113886;27;20033;-89
2022/08/15 09:27:54;;;;;;;19.20;9.63;;;;;;;35.47;31.44;99957.72;5121161;27;20038;-88
2022/08/15 09:30:19;;;;;;;14.13;9.73;;;;;;;35.61;30.91;99953.81;5114715;27;20054;-90
2022/08/15 09:33:23;;;;;;;15.20;10.20;;;;;;;35.04;31.85;99961.72;5115158;27;20024;-89
2022/08/15 09:36:06;;;;;;;17.40;9.20;;;;;;;35.64;30.57;99965.13;5125808;27;20034;-90
2022/08/15 09:38:39;;;;;;;11.40;8.18;;;;;;;37.34;27.80;99961.63;5128326;27;20027;-89
2022/08/15 09:41:09;;;;;;;11.45;7.25;;;;;;;38.16;26.39;99950.94;5123473;27;20051;-88
2022/08/15 09:44:08;;;;;;;10.50;7.13;;;;;;;38.50;25.93;99940.94;5129366;27;20031;-89
2022/08/15 09:47:08;;;;;;;8.43;7.18;;;;;;;39.83;24.03;99943.56;5131370;27;20039;-89
2022/08/15 09:50:05;;;;;;;8.13;6.78;;;;;;;40.04;23.79;99941.09;5130427;27;20036;-89
2022/08/15 09:53:10;;;;;;;15.00;7.60;;;;;;;40.84;23.05;99941.06;5127088;27;20031;-88
2022/08/15 09:55:44;;;;;;;9.32;7.10;;;;;;;41.07;22.51;99934.44;5119077;27;20091;-89
2022/08/15 09:58:28;;;;;;;10.30;7.40;;;;;;;40.85;22.90;99942.66;5122358;27;20122;-88
2022/08/15 10:01:12;;;;;;;11.35;7.30;;;;;;;41.07;21.85;99959.81;5126650;27;20039;-89
2022/08/15 10:03:43;;;;;;;10.75;7.53;;;;;;;41.40;21.69;99952.56;5117308;27;20047;-90
2022/08/15 10:06:46;;;;;;;9.82;8.40;;;;;;;41.41;22.07;99957.81;5120175;27;20027;-89
2022/08/15 10:09:17;;;;;;;8.30;7.05;;;;;;;39.95;23.51;99953.81;5126768;27;20039;-89
2022/08/15 10:11:49;;;;;;;8.68;7.35;;;;;;;41.40;21.87;99969.47;5124385;27;20026;-89
2022/08/15 10:14:42;;;;;;;9.13;7.25;;;;;;;42.17;20.84;99956.50;5111716;28;20050;-89
2022/08/15 10:17:38;;;;;;;9.20;7.18;;;;;;;42.44;20.26;99945.81;5124274;28;20360;-90
2022/08/15 10:20:18;;;;;;;8.48;6.57;;;;;;;43.20;19.48;99956.28;5106815;28;20032;-89
2022/08/15 10:23:07;;;;;;;7.60;6.75;;;;;;;42.35;20.72;99945.31;5134331;28;20039;-89
2022/08/15 10:25:36;;;;;;;8.10;6.88;;;;;;;43.63;19.25;99944.22;5119937;28;20031;-91
2022/08/15 10:28:14;;;;;;;10.88;6.78;;;;;;;44.40;18.75;99960.75;5111960;28;20106;-92
2022/08/15 10:31:05;;;;;;;9.88;7.35;;;;;;;42.16;20.91;99957.69;5116731;28;20035;-87
2022/08/15 10:33:30;;;;;;;9.57;6.93;;;;;;;40.92;21.76;99951.22;5119794;28;20031;-88
2022/08/15 10:36:14;;;;;;;9.50;7.50;;;;;;;39.88;23.53;99952.50;5109430;28;20062;-87
2022/08/15 10:38:45;;;;;;;9.30;7.47;;;;;;;38.83;24.93;99950.84;5118629;28;20031;-89
2022/08/15 10:41:31;;;;;;;12.73;7.78;;;;;;;38.81;25.11;99947.59;5094663;28;20039;-87
2022/08/15 10:44:42;;;;;;;11.23;7.70;;;;;;;38.00;25.98;99956.56;5124648;27;20050;-88
2022/08/15 10:47:26;;;;;;;9.10;7.45;;;;;;;36.18;27.82;99960.53;5099164;27;20104;-85
2022/08/15 10:50:05;;;;;;;;;;;;;;;38.07;25.59;99953.13;5117140;27;20024;-88
2022/08/15 10:52:43;;;;;;;12.98;7.50;;;;;;;39.70;23.67;99959.78;5131321;27;19911;-86
2022/08/15 10:55:27;;;;;;;9.90;7.70;;;;;;;39.53;23.35;99935.81;5121976;27;20091;-88
2022/08/15 10:58:00;;;;;;;10.95;7.25;;;;;;;39.85;23.37;99958.88;5126042;27;20030;-87
2022/08/15 11:00:40;;;;;;;8.98;7.75;;;;;;;38.85;24.36;99966.16;5144249;27;20058;-89
2022/08/15 11:06:34;;;;;;;7.95;6.90;;;;;;;39.86;22.99;99965.31;5063806;28;20045;-93
2022/08/15 11:09:19;;;;;;;7.97;6.75;;;;;;;39.26;23.85;99963.78;5057711;28;20080;-94
2022/08/15 11:12:03;;;;;;;10.70;6.90;;;;;;;38.68;24.36;99955.38;5040917;28;20083;-95
2022/08/15 11:14:33;;;;;;;9.00;6.53;;;;;;;37.87;25.08;99950.22;5032493;28;20493;-89
2022/08/15 11:17:00;;;;;;;7.97;6.47;;;;;;;37.73;25.34;99961.06;5001054;28;20121;-89
2022/08/15 11:19:32;;;;;;;9.80;6.13;;;;;;;37.84;25.51;99967.78;5006504;28;20099;-89
2022/08/15 11:22:05;;;;;;;8.85;7.13;;;;;;;37.09;26.55;99960.09;5054945;28;20059;-92
2022/08/15 11:24:50;;;;;;;7.63;6.82;;;;;;;35.93;28.24;99966.88;5038784;28;20041;-94
2022/08/15 11:27:24;;;;;;;9.30;7.38;;;;;;;36.27;28.42;99962.03;5045950;28;20053;-95
2022/08/15 11:29:54;;;;;;;7.32;6.60;;;;;;;36.59;27.77;99959.44;5028529;28;20175;-92
2022/08/15 11:32:32;;;;;;;7.95;7.15;;;;;;;36.18;27.51;99971.72;5052369;28;20029;-90
2022/08/15 11:35:02;;;;;;;10.15;7.18;;;;;;;35.17;29.28;99961.81;5042716;28;20048;-93
2022/08/15 11:37:38;;;;;;;10.02;7.50;;;;;;;34.72;30.58;99968.09;5056758;28;20043;-85
2022/08/15 11:40:30;;;;;;;8.68;7.60;;;;;;;35.08;30.56;99957.09;5027385;28;20016;-94
2022/08/15 11:43:17;;;;;;;9.88;7.50;;;;;;;35.28;29.89;99958.22;5065606;28;20045;-90
2022/08/15 11:45:53;;;;;;;11.23;7.82;;;;;;;35.68;29.72;99954.06;5056928;28;20067;-90
2022/08/15 11:48:30;;;;;;;9.82;7.70;;;;;;;34.72;30.75;99954.13;5028588;28;20025;-93
2022/08/15 11:51:02;;;;;;;10.90;7.60;;;;;;;34.59;30.92;99959.63;5069633;28;20041;-93
2022/08/15 11:53:30;;;;;;;8.95;6.75;;;;;;;34.81;30.36;99958.47;5042710;28;20056;-92
2022/08/15 11:55:59;;;;;;;9.50;7.18;;;;;;;34.88;29.88;99943.97;5009029;28;20029;-94
2022/08/15 11:58:33;;;;;;;7.65;6.82;;;;;;;34.89;29.60;99945.63;5036767;28;20040;-91
2022/08/15 12:01:00;;;;;;;9.25;6.93;;;;;;;34.58;29.87;99946.81;5033168;28;20385;-87
2022/08/15 12:03:31;;;;;;;7.70;6.90;;;;;;;34.54;30.53;99950.63;5034487;28;20055;-87
2022/08/15 12:06:16;;;;;;;8.57;7.10;;;;;;;33.76;32.19;99949.03;5043477;28;20513;-86
2022/08/15 12:08:45;;;;;;;10.65;7.28;;;;;;;32.94;33.85;99960.13;5033024;28;20555;-88
2022/08/15 12:11:17;;;;;;;9.25;7.45;;;;;;;32.55;34.48;99968.31;5032622;28;20048;-84
2022/08/15 12:13:57;;;;;;;12.25;7.75;;;;;;;32.78;34.06;99965.41;5053184;28;20191;-82
2022/08/15 12:16:34;;;;;;;14.65;8.50;;;;;;;32.83;33.90;99956.03;5041589;28;20060;-83
2022/08/15 12:19:29;;;;;;;11.18;7.82;;;;;;;32.97;34.11;99968.66;5026723;28;20531;-84